createdAt,value
2018-11-20T00:01:00.035Z,3.70
2018-11-20T00:07:18.363Z,3.70
2018-11-20T00:16:26.027Z,3.70
2018-11-20T00:19:26.459Z,3.70
2018-11-20T00:22:16.403Z,3.70
2018-11-20T00:25:16.510Z,3.70
2018-11-20T00:28:16.542Z,3.80
2018-11-20T00:31:16.678Z,3.70
2018-11-20T00:37:30.780Z,3.80
2018-11-20T00:43:27.818Z,3.70
2018-11-20T00:46:27.724Z,3.80
2018-11-20T00:49:27.996Z,3.80
2018-11-20T00:52:27.997Z,3.80
2018-11-20T00:55:28.715Z,3.80
2018-11-20T00:58:28.341Z,3.80
2018-11-20T01:01:28.298Z,3.80
2018-11-20T01:04:28.540Z,3.70
2018-11-20T01:13:30.211Z,3.90
2018-11-20T01:16:30.132Z,3.90
2018-11-20T01:19:27.443Z,3.80
2018-11-20T01:22:29.684Z,3.80
2018-11-20T01:25:32.553Z,3.90
2018-11-20T01:28:35.092Z,3.90
2018-11-20T01:31:34.960Z,4.00
2018-11-20T01:34:41.361Z,3.90
2018-11-20T01:40:44.983Z,4.00
2018-11-20T01:46:38.788Z,4.00
2018-11-20T01:52:41.554Z,4.00
2018-11-20T01:58:36.517Z,4.10
2018-11-20T02:01:43.966Z,4.10
2018-11-20T02:04:43.616Z,4.10
2018-11-20T02:07:50.971Z,4.10
2018-11-20T02:10:58.359Z,4.10
2018-11-20T02:14:24.570Z,4.20
2018-11-20T02:17:50.803Z,4.10
2018-11-20T02:20:58.162Z,4.00
2018-11-20T02:23:55.724Z,4.00
2018-11-20T02:27:03.116Z,4.00
2018-11-20T02:30:10.494Z,4.00
2018-11-20T02:33:17.909Z,4.00
2018-11-20T02:36:25.428Z,4.00
2018-11-20T02:39:32.767Z,4.00
2018-11-20T02:42:40.171Z,4.00
2018-11-20T02:45:47.522Z,3.80
2018-11-20T02:48:54.882Z,3.90
2018-11-20T02:51:54.855Z,3.90
2018-11-20T02:54:55.082Z,3.80
2018-11-20T02:57:55.799Z,3.90
2018-11-20T03:00:52.737Z,3.90
2018-11-20T03:03:53.251Z,3.80
2018-11-20T03:06:59.090Z,3.80
2018-11-20T03:09:57.573Z,3.80
2018-11-20T03:16:01.338Z,3.80
2018-11-20T03:19:01.101Z,3.70
2018-11-20T03:22:01.208Z,3.80
2018-11-20T03:25:01.295Z,3.90
2018-11-20T03:28:02.028Z,3.90
2018-11-20T03:31:02.099Z,3.90
2018-11-20T03:34:02.445Z,3.80
2018-11-20T03:37:02.671Z,3.80
2018-11-20T03:40:02.340Z,3.80
2018-11-20T03:46:07.751Z,3.80
2018-11-20T03:52:11.282Z,3.80
2018-11-20T03:55:11.376Z,3.80
2018-11-20T03:58:11.305Z,3.80
2018-11-20T04:07:11.823Z,3.80
2018-11-20T04:10:04.381Z,3.80
2018-11-20T04:13:10.032Z,3.80
2018-11-20T04:16:12.761Z,3.80
2018-11-20T04:19:12.994Z,3.80
2018-11-20T04:22:09.990Z,3.80
2018-11-20T04:25:15.865Z,3.80
2018-11-20T04:28:15.760Z,3.80
2018-11-20T04:34:15.808Z,3.80
2018-11-20T04:37:15.506Z,3.80
2018-11-20T04:40:15.508Z,3.80
2018-11-20T04:43:15.441Z,3.80
2018-11-20T04:46:15.297Z,3.80
2018-11-20T04:52:18.424Z,3.70
2018-11-20T04:55:21.099Z,3.70
2018-11-20T04:58:20.766Z,3.70
2018-11-20T05:01:20.928Z,3.70
2018-11-20T05:04:21.620Z,3.80
2018-11-20T05:07:12.022Z,3.80
2018-11-20T05:10:02.333Z,3.80
2018-11-20T05:12:55.278Z,3.80
2018-11-20T05:15:55.672Z,3.70
2018-11-20T05:22:02.167Z,3.80
2018-11-20T05:25:05.256Z,3.80
2018-11-20T05:28:05.315Z,3.80
2018-11-20T05:31:05.455Z,3.80
2018-11-20T05:34:08.214Z,3.70
2018-11-20T05:37:14.259Z,3.80
2018-11-20T05:40:14.359Z,3.80
2018-11-20T05:46:09.225Z,3.80
2018-11-20T05:49:09.091Z,3.80
2018-11-20T05:52:09.032Z,3.80
2018-11-20T05:58:23.448Z,3.90
2018-11-20T06:01:23.877Z,3.80
2018-11-20T06:07:27.146Z,3.90
2018-11-20T06:10:29.689Z,3.90
2018-11-20T06:13:32.280Z,3.90
2018-11-20T06:19:35.523Z,3.90
2018-11-20T06:22:35.448Z,3.90
2018-11-20T06:25:35.692Z,4.00
2018-11-20T06:28:29.279Z,4.00
2018-11-20T06:31:29.240Z,4.00
2018-11-20T06:34:17.751Z,3.90
2018-11-20T06:37:25.057Z,3.90
2018-11-20T06:40:32.425Z,3.90
2018-11-20T06:43:39.784Z,4.00
2018-11-20T06:46:47.146Z,4.00
2018-11-20T06:49:54.506Z,4.00
2018-11-20T06:53:01.913Z,4.00
2018-11-20T06:56:09.222Z,3.90
2018-11-20T06:59:16.574Z,3.90
2018-11-20T07:02:23.902Z,4.00
2018-11-20T07:05:17.314Z,4.00
2018-11-20T07:08:16.983Z,3.90
2018-11-20T07:11:24.185Z,3.90
2018-11-20T07:14:32.919Z,3.90
2018-11-20T07:17:41.584Z,3.90
2018-11-20T07:20:48.911Z,3.90
2018-11-20T07:23:56.282Z,3.90
2018-11-20T07:27:03.692Z,3.80
2018-11-20T07:30:11.093Z,3.80
2018-11-20T07:33:18.393Z,3.80
2018-11-20T07:36:25.840Z,3.80
2018-11-20T07:39:27.145Z,3.70
2018-11-20T07:42:34.488Z,3.70
2018-11-20T07:45:41.846Z,3.60
2018-11-20T07:48:49.219Z,3.70
2018-11-20T07:51:56.601Z,3.80
2018-11-20T07:55:03.993Z,3.80
2018-11-20T07:58:11.380Z,3.80
2018-11-20T08:01:18.756Z,3.80
2018-11-20T08:04:26.119Z,3.80
2018-11-20T08:07:33.479Z,3.80
2018-11-20T08:10:40.966Z,3.70
2018-11-20T08:13:48.333Z,3.80
2018-11-20T08:16:55.667Z,3.80
2018-11-20T08:19:53.140Z,3.80
2018-11-20T08:23:00.548Z,3.80
2018-11-20T08:26:08.028Z,3.80
2018-11-20T08:29:15.250Z,3.80
2018-11-20T08:32:22.581Z,3.90
2018-11-20T08:35:29.984Z,3.80
2018-11-20T08:38:37.318Z,3.90
2018-11-20T08:41:44.674Z,3.80
2018-11-20T08:44:52.030Z,3.80
2018-11-20T08:47:59.482Z,3.80
2018-11-20T08:51:06.808Z,3.90
2018-11-20T08:54:14.160Z,3.90
2018-11-20T08:57:21.522Z,3.90
2018-11-20T09:00:28.891Z,3.90
2018-11-20T09:03:36.241Z,3.80
2018-11-20T09:06:43.593Z,3.80
2018-11-20T09:09:51.002Z,3.80
2018-11-20T09:12:58.291Z,3.80
2018-11-20T09:16:05.654Z,3.90
2018-11-20T09:19:13.010Z,3.90
2018-11-20T09:22:20.351Z,3.90
2018-11-20T09:25:27.716Z,3.90
2018-11-20T09:28:35.033Z,3.90
2018-11-20T09:31:42.401Z,3.90
2018-11-20T09:34:49.854Z,3.90
2018-11-20T09:37:57.147Z,3.90
2018-11-20T09:41:05.128Z,3.90
2018-11-20T09:44:31.425Z,3.90
2018-11-20T09:47:38.790Z,4.00
2018-11-20T09:50:46.135Z,4.00
2018-11-20T09:53:53.505Z,4.00
2018-11-20T09:57:00.927Z,4.10
2018-11-20T10:00:08.296Z,4.10
2018-11-20T10:03:15.636Z,4.10
2018-11-20T10:06:23.056Z,4.20
2018-11-20T10:09:30.396Z,4.10
2018-11-20T10:12:37.815Z,4.10
2018-11-20T10:15:45.177Z,4.10
2018-11-20T10:18:52.506Z,4.10
2018-11-20T10:21:59.928Z,4.10
2018-11-20T10:25:07.255Z,4.20
2018-11-20T10:28:14.579Z,4.20
2018-11-20T10:31:21.919Z,4.20
2018-11-20T10:34:29.319Z,4.30
2018-11-20T10:37:36.701Z,4.30
2018-11-20T10:40:44.036Z,4.30
2018-11-20T10:43:51.409Z,4.30
2018-11-20T10:46:58.818Z,4.20
2018-11-20T10:50:06.165Z,4.20
2018-11-20T10:53:13.533Z,4.20
2018-11-20T10:56:20.901Z,4.30
2018-11-20T10:59:28.263Z,4.30
2018-11-20T11:02:35.607Z,4.20
2018-11-20T11:05:44.881Z,4.20
2018-11-20T11:08:52.247Z,4.30
2018-11-20T11:11:59.600Z,4.20
2018-11-20T11:15:07.010Z,4.20
2018-11-20T11:18:14.387Z,4.30
2018-11-20T11:21:21.755Z,4.20
2018-11-20T11:24:29.098Z,4.30
2018-11-20T11:27:36.454Z,4.30
2018-11-20T11:30:43.795Z,4.40
2018-11-20T11:33:51.161Z,4.30
2018-11-20T11:36:58.515Z,4.40
2018-11-20T11:40:05.956Z,4.40
2018-11-20T11:43:13.338Z,4.40
2018-11-20T11:46:20.662Z,4.40
2018-11-20T11:49:28.019Z,4.30
2018-11-20T11:52:35.372Z,4.20
2018-11-20T11:55:42.723Z,4.20
2018-11-20T11:58:50.071Z,4.30
2018-11-20T12:05:04.311Z,4.30
2018-11-20T12:08:11.695Z,4.20
2018-11-20T12:11:19.035Z,4.20
2018-11-20T12:14:26.394Z,4.20
2018-11-20T12:17:33.757Z,4.20
2018-11-20T12:20:43.347Z,4.20
2018-11-20T12:23:48.488Z,4.20
2018-11-20T12:26:55.822Z,4.20
2018-11-20T12:30:03.209Z,4.20
2018-11-20T12:33:10.554Z,4.30
2018-11-20T12:36:17.961Z,4.30
2018-11-20T12:39:27.475Z,4.30
2018-11-20T12:42:35.131Z,4.20
2018-11-20T12:46:01.392Z,4.20
2018-11-20T12:49:09.077Z,4.20
2018-11-20T12:52:16.453Z,4.30
2018-11-20T12:55:23.935Z,4.30
2018-11-20T12:58:31.297Z,4.20
2018-11-20T13:01:38.728Z,4.20
2018-11-20T13:04:40.212Z,4.20
2018-11-20T13:07:47.588Z,4.20
2018-11-20T13:10:54.919Z,4.20
2018-11-20T13:14:02.386Z,4.20
2018-11-20T13:17:11.256Z,4.20
2018-11-20T13:20:17.122Z,4.20
2018-11-20T13:23:25.555Z,4.20
2018-11-20T13:26:21.239Z,4.20
2018-11-20T13:29:28.668Z,4.20
2018-11-20T13:32:36.081Z,4.20
2018-11-20T13:35:43.594Z,4.20
2018-11-20T13:38:52.074Z,4.20
2018-11-20T13:41:59.155Z,4.10
2018-11-20T13:45:07.703Z,4.10
2018-11-20T13:48:15.056Z,4.10
2018-11-20T13:51:22.723Z,4.10
2018-11-20T13:54:31.875Z,4.00
2018-11-20T13:57:37.427Z,4.00
2018-11-20T14:00:44.762Z,4.00
2018-11-20T14:03:52.127Z,3.90
2018-11-20T14:06:59.512Z,3.90
2018-11-20T14:10:04.201Z,3.90
2018-11-20T14:13:11.567Z,3.80
2018-11-20T14:16:18.915Z,3.80
2018-11-20T14:19:26.298Z,3.80
2018-11-20T14:25:29.807Z,3.80
2018-11-20T14:28:29.657Z,3.80
2018-11-20T14:31:29.842Z,3.70
2018-11-20T14:34:29.930Z,3.70
2018-11-20T14:37:32.538Z,3.70
2018-11-20T14:43:30.661Z,3.60
2018-11-20T14:46:28.934Z,3.50
2018-11-20T14:49:29.024Z,3.50
2018-11-20T14:52:35.503Z,3.60
2018-11-20T14:55:41.381Z,3.60
2018-11-20T14:58:41.414Z,3.60
2018-11-20T15:01:42.012Z,3.60
2018-11-20T15:04:41.982Z,3.60
2018-11-20T15:10:36.209Z,3.50
2018-11-20T15:13:37.005Z,3.50
2018-11-20T15:16:30.533Z,3.50
2018-11-20T15:19:29.986Z,3.50
2018-11-20T15:22:22.448Z,3.30
2018-11-20T15:25:09.795Z,3.40
2018-11-20T15:28:15.571Z,3.40
2018-11-20T15:31:15.554Z,3.40
2018-11-20T15:34:15.094Z,3.40
2018-11-20T15:37:15.320Z,3.30
2018-11-20T15:40:06.056Z,3.40
2018-11-20T15:43:06.098Z,3.40
2018-11-20T15:45:57.869Z,3.40
2018-11-20T15:48:58.645Z,3.40
2018-11-20T15:52:03.834Z,3.30
2018-11-20T15:55:04.012Z,3.40
2018-11-20T15:58:03.937Z,3.30
2018-11-20T16:01:04.631Z,3.40
2018-11-20T16:04:07.177Z,3.30
2018-11-20T16:07:07.314Z,3.30
2018-11-20T16:10:00.193Z,3.40
2018-11-20T16:12:59.928Z,3.40
2018-11-20T16:16:05.932Z,3.40
2018-11-20T16:19:06.105Z,3.40
2018-11-20T16:22:06.011Z,3.40
2018-11-20T16:25:05.864Z,3.40
2018-11-20T16:28:05.744Z,3.40
2018-11-20T16:31:05.628Z,3.40
2018-11-20T16:34:05.738Z,3.30
2018-11-20T16:37:05.851Z,3.40
2018-11-20T16:40:05.407Z,3.50
2018-11-20T16:43:05.428Z,3.40
2018-11-20T16:46:05.733Z,3.40
2018-11-20T16:49:05.795Z,3.50
2018-11-20T16:52:05.851Z,3.50
2018-11-20T16:55:05.977Z,3.50
2018-11-20T17:01:09.540Z,3.50
2018-11-20T17:07:12.261Z,3.60
2018-11-20T17:10:12.939Z,3.40
2018-11-20T17:13:12.697Z,3.50
2018-11-20T17:16:10.355Z,3.50
2018-11-20T17:19:10.128Z,3.40
2018-11-20T17:22:10.131Z,3.50
2018-11-20T17:25:15.782Z,3.50
2018-11-20T17:28:16.101Z,3.50
2018-11-20T17:31:16.061Z,3.50
2018-11-20T17:34:16.252Z,3.40
2018-11-20T17:37:16.499Z,3.50
2018-11-20T17:40:21.046Z,3.40
2018-11-20T17:43:19.487Z,3.50
2018-11-20T17:46:22.210Z,3.40
2018-11-20T17:49:22.007Z,3.50
2018-11-20T17:52:21.555Z,3.40
2018-11-20T17:55:21.648Z,3.40
2018-11-20T17:58:21.565Z,3.40
2018-11-20T18:01:24.295Z,3.40
2018-11-20T18:04:17.208Z,3.50
2018-11-20T18:07:17.030Z,3.50
2018-11-20T18:10:15.626Z,3.50
2018-11-20T18:16:19.106Z,3.40
2018-11-20T18:19:21.515Z,3.50
2018-11-20T18:22:14.878Z,3.50
2018-11-20T18:28:13.115Z,3.50
2018-11-20T18:34:15.264Z,3.60
2018-11-20T18:37:15.145Z,3.60
2018-11-20T18:40:11.831Z,3.60
2018-11-20T18:43:12.319Z,3.60
2018-11-20T18:46:12.312Z,3.60
2018-11-20T18:49:13.011Z,3.60
2018-11-20T18:52:12.914Z,3.50
2018-11-20T18:55:13.101Z,3.50
2018-11-20T18:58:13.137Z,3.60
2018-11-20T19:01:12.811Z,3.60
2018-11-20T19:04:12.257Z,3.50
2018-11-20T19:07:12.329Z,3.60
2018-11-20T19:10:11.999Z,3.60
2018-11-20T19:13:12.215Z,3.60
2018-11-20T19:16:09.193Z,3.50
2018-11-20T19:19:08.993Z,3.50
2018-11-20T19:22:09.308Z,3.60
2018-11-20T19:25:14.973Z,3.60
2018-11-20T19:28:09.884Z,3.60
2018-11-20T19:31:10.073Z,3.60
2018-11-20T19:34:10.240Z,3.60
2018-11-20T19:37:05.000Z,3.60
2018-11-20T19:40:07.329Z,3.70
2018-11-20T19:43:09.906Z,3.60
2018-11-20T19:46:10.695Z,3.50
2018-11-20T19:49:10.612Z,3.70
2018-11-20T19:52:10.670Z,3.70
2018-11-20T19:55:10.430Z,3.70
2018-11-20T19:58:10.340Z,3.70
2018-11-20T20:04:14.251Z,3.80
2018-11-20T20:07:14.107Z,3.80
2018-11-20T20:10:18.569Z,3.80
2018-11-20T20:13:17.178Z,3.70
2018-11-20T20:16:17.160Z,3.80
2018-11-20T20:19:18.148Z,3.80
2018-11-20T20:22:18.447Z,3.80
2018-11-20T20:25:18.726Z,3.80
2018-11-20T20:28:18.674Z,3.80
2018-11-20T20:31:19.496Z,3.70
2018-11-20T20:37:32.759Z,3.70
2018-11-20T20:40:35.442Z,3.60
2018-11-20T20:46:58.381Z,3.60
2018-11-20T20:49:58.829Z,3.50
2018-11-20T20:52:59.188Z,3.60
2018-11-20T20:55:58.869Z,3.60
2018-11-20T20:59:01.988Z,3.50
2018-11-20T21:02:02.115Z,3.60
2018-11-20T21:05:02.661Z,3.60
2018-11-20T21:08:02.917Z,3.60
2018-11-20T21:14:06.144Z,3.50
2018-11-20T21:20:22.440Z,3.50
2018-11-20T21:26:25.077Z,3.60
2018-11-20T21:29:25.011Z,3.60
2018-11-20T21:35:30.117Z,3.60
2018-11-20T21:38:32.832Z,3.60
2018-11-20T21:41:32.816Z,3.60
2018-11-20T21:44:33.358Z,3.60
2018-11-20T21:47:33.535Z,3.60
2018-11-20T21:50:34.291Z,3.50
2018-11-20T21:53:34.208Z,3.40
2018-11-20T21:59:33.812Z,3.30
2018-11-20T22:02:36.950Z,3.20
2018-11-20T22:05:37.593Z,3.10
2018-11-20T22:08:38.100Z,3.20
2018-11-20T22:11:34.707Z,3.10
2018-11-20T22:14:34.993Z,3.10
2018-11-20T22:17:41.132Z,3.00
2018-11-20T22:20:41.208Z,3.00
2018-11-20T22:23:41.355Z,3.00
2018-11-20T22:26:34.294Z,2.90
2018-11-20T22:29:44.840Z,2.90
2018-11-20T22:32:44.747Z,2.90
2018-11-20T22:38:38.145Z,2.90
2018-11-20T22:41:44.273Z,2.80
2018-11-20T22:44:44.426Z,2.90
2018-11-20T22:53:45.102Z,2.80
2018-11-20T22:56:33.255Z,2.80
2018-11-20T23:02:24.489Z,2.90
2018-11-20T23:05:30.999Z,3.00
2018-11-20T23:08:19.669Z,3.10
2018-11-20T23:11:08.374Z,3.10
2018-11-20T23:13:57.070Z,3.20
2018-11-20T23:16:45.792Z,3.20
2018-11-20T23:19:34.462Z,3.20
2018-11-20T23:22:23.168Z,3.30
2018-11-20T23:25:13.107Z,3.30
2018-11-20T23:28:01.791Z,3.40
2018-11-20T23:30:50.485Z,3.40
2018-11-20T23:33:39.202Z,3.40
2018-11-20T23:39:35.750Z,3.40
2018-11-20T23:42:24.427Z,3.40
2018-11-20T23:45:14.293Z,3.50
2018-11-20T23:48:02.964Z,3.50
2018-11-20T23:50:51.670Z,3.60
2018-11-20T23:53:40.364Z,3.60
2018-11-20T23:56:29.069Z,3.50
2018-11-20T23:59:17.789Z,3.50
